Time;durP1;ratioP1;P1;durP2;ratioP2;P2;SDS_P1;SDS_P2;PMS_P1;PMS_P2;Temp;Humidity;BMP_temperature;BMP_pressure;BME280_temperature;BME280_humidity;BME280_pressure;Samples;Min_cycle;Max_cycle;Signal;HPM_P1;HPM_P2
2021/10/21 00:01:03;;;;;;;5.23;3.20;;;;;;;16.95;70.82;96794.78;8221529;28;20525;-89
2021/10/21 00:05:07;;;;;;;8.10;4.00;;;;;;;17.07;69.21;96795.47;8222336;28;20210;-89
2021/10/21 00:09:10;;;;;;;7.90;3.93;;;;;;;17.13;68.91;96815.03;8221312;28;20203;-88
2021/10/21 00:13:15;;;;;;;4.83;3.77;;;;;;;17.13;68.96;96805.38;8221437;28;20215;-87
2021/10/21 00:17:18;;;;;;;8.83;4.17;;;;;;;17.19;68.27;96794.41;8236523;28;20205;-88
2021/10/21 00:21:21;;;;;;;5.80;3.70;;;;;;;17.16;68.62;96786.81;8253367;28;20217;-87
2021/10/21 00:25:24;;;;;;;6.80;4.07;;;;;;;16.93;69.72;96796.72;8252149;28;20202;-87
2021/10/21 00:29:29;;;;;;;4.83;3.87;;;;;;;16.82;69.68;96815.13;8252663;28;20202;-87
2021/10/21 00:33:32;;;;;;;5.67;3.97;;;;;;;16.92;69.10;96779.38;8253089;28;20485;-87
2021/10/21 00:37:36;;;;;;;5.43;3.87;;;;;;;16.96;68.88;96752.00;8252936;28;20214;-86
2021/10/21 00:41:39;;;;;;;9.53;3.90;;;;;;;16.85;69.39;96731.22;8252662;28;20213;-87
2021/10/21 00:45:44;;;;;;;4.27;3.33;;;;;;;16.96;68.87;96725.84;8252469;28;20229;-88
2021/10/21 00:49:48;;;;;;;5.03;3.53;;;;;;;16.94;68.92;96698.97;8252528;28;20406;-88
2021/10/21 00:53:51;;;;;;;5.07;3.60;;;;;;;16.85;68.73;96699.84;8252568;28;20234;-87
2021/10/21 00:57:55;;;;;;;5.57;3.40;;;;;;;16.94;68.33;96701.59;8252095;28;20245;-88
2021/10/21 01:02:00;;;;;;;5.37;3.13;;;;;;;16.97;68.70;96703.13;8246773;28;20397;-87
2021/10/21 01:06:04;;;;;;;4.20;3.37;;;;;;;16.82;69.29;96705.34;8226751;28;20203;-88
2021/10/21 01:10:09;;;;;;;6.57;3.10;;;;;;;16.81;68.84;96686.19;8232773;28;20231;-88
2021/10/21 01:14:13;;;;;;;4.40;3.30;;;;;;;16.89;68.94;96698.59;8231013;28;20210;-88
2021/10/21 01:18:18;;;;;;;4.37;3.30;;;;;;;16.76;69.41;96680.53;8230865;28;20202;-87
2021/10/21 01:22:22;;;;;;;4.70;3.20;;;;;;;16.79;68.81;96655.91;8230412;28;20211;-87
2021/10/21 01:26:25;;;;;;;6.77;3.40;;;;;;;16.63;70.24;96638.16;8230489;29;20406;-87
2021/10/21 01:30:29;;;;;;;4.37;3.27;;;;;;;16.78;69.22;96630.72;8230298;28;20238;-87
2021/10/21 01:34:32;;;;;;;4.63;3.60;;;;;;;16.69;69.47;96621.09;8230366;28;20506;-88
2021/10/21 01:38:37;;;;;;;4.90;3.67;;;;;;;16.72;69.31;96620.84;8229980;28;20210;-87
2021/10/21 01:42:40;;;;;;;4.50;3.00;;;;;;;16.53;70.08;96604.19;8230185;28;20217;-87
2021/10/21 01:46:43;;;;;;;4.90;3.10;;;;;;;16.69;69.10;96618.50;8230263;29;20209;-87
2021/10/21 01:50:47;;;;;;;4.50;3.27;;;;;;;16.52;69.67;96633.91;8230169;28;20242;-87
2021/10/21 01:54:51;;;;;;;5.83;3.10;;;;;;;16.55;69.77;96585.78;8230360;28;20238;-88
2021/10/21 01:58:54;;;;;;;5.03;3.30;;;;;;;15.73;73.50;96504.25;8235100;28;20218;-88
2021/10/21 02:02:58;;;;;;;4.97;3.33;;;;;;;15.50;74.20;96448.00;8231566;28;20230;-89
2021/10/21 02:07:01;;;;;;;4.83;3.33;;;;;;;15.55;73.01;96428.38;8229847;28;20203;-87
2021/10/21 02:11:05;;;;;;;5.73;2.60;;;;;;;15.64;72.87;96463.28;8229671;28;20227;-86
2021/10/21 02:15:09;;;;;;;4.17;2.50;;;;;;;15.82;71.75;96471.28;8229861;28;20209;-86
2021/10/21 02:19:12;;;;;;;3.27;2.20;;;;;;;15.97;70.60;96475.16;8223370;28;20214;-86
2021/10/21 02:23:15;;;;;;;2.80;2.10;;;;;;;16.11;70.16;96488.75;8223482;29;20206;-86
2021/10/21 02:27:20;;;;;;;2.77;1.90;;;;;;;16.16;69.75;96503.03;8223618;29;20203;-86
2021/10/21 02:31:23;;;;;;;3.43;2.13;;;;;;;15.93;70.15;96475.53;8224217;28;20265;-86
2021/10/21 02:35:26;;;;;;;2.03;1.83;;;;;;;16.03;69.92;96465.94;8224286;28;20202;-86
2021/10/21 02:39:29;;;;;;;2.93;1.70;;;;;;;15.95;69.89;96471.81;8224167;28;20207;-86
2021/10/21 02:43:35;;;;;;;2.67;1.80;;;;;;;15.96;69.75;96480.50;8223939;28;20211;-84
2021/10/21 02:47:38;;;;;;;4.67;2.23;;;;;;;15.93;69.93;96426.75;8224131;28;20348;-85
2021/10/21 02:51:41;;;;;;;3.10;2.00;;;;;;;15.57;71.41;96379.53;8223465;28;20235;-85
2021/10/21 02:55:44;;;;;;;3.87;2.17;;;;;;;15.36;72.13;96353.53;8223711;29;20202;-86
2021/10/21 02:59:48;;;;;;;3.43;1.70;;;;;;;15.49;71.93;96387.19;8222590;29;20225;-85
2021/10/21 03:03:52;;;;;;;4.20;2.53;;;;;;;15.55;71.33;96378.81;8244322;28;20203;-85
2021/10/21 03:07:55;;;;;;;3.77;2.20;;;;;;;15.53;71.89;96330.34;8254535;28;20230;-86
2021/10/21 03:11:58;;;;;;;4.00;2.30;;;;;;;15.29;72.88;96317.72;8255447;28;20540;-85
2021/10/21 03:16:03;;;;;;;4.33;2.40;;;;;;;15.37;72.10;96317.88;8254779;28;20198;-85
2021/10/21 03:20:08;;;;;;;4.10;2.40;;;;;;;15.17;73.62;96301.38;8253771;28;20364;-88
2021/10/21 03:24:11;;;;;;;4.43;2.50;;;;;;;15.29;72.69;96287.28;8253848;28;20214;-85
2021/10/21 03:28:14;;;;;;;3.37;2.63;;;;;;;15.00;73.79;96271.59;8254528;28;20209;-84
2021/10/21 03:32:19;;;;;;;4.10;2.87;;;;;;;14.85;74.93;96274.63;8254739;28;20226;-84
2021/10/21 03:36:22;;;;;;;2.80;2.50;;;;;;;15.04;73.88;96265.16;8254570;28;20206;-84
2021/10/21 03:40:25;;;;;;;4.37;3.60;;;;;;;15.10;74.19;96284.63;8254217;28;20209;-84
2021/10/21 03:44:28;;;;;;;4.53;3.57;;;;;;;15.23;73.71;96293.00;8254321;28;20202;-85
2021/10/21 03:48:32;;;;;;;6.30;3.70;;;;;;;15.35;73.90;96314.59;8254098;28;20202;-85
2021/10/21 03:52:36;;;;;;;6.70;4.10;;;;;;;15.23;74.15;96304.28;8253965;28;20246;-85
2021/10/21 03:56:41;;;;;;;4.73;3.60;;;;;;;15.25;74.12;96278.06;8247149;28;20203;-86
2021/10/21 04:00:45;;;;;;;4.10;3.33;;;;;;;15.29;74.20;96276.00;8221636;29;20199;-86
2021/10/21 04:04:49;;;;;;;4.60;3.50;;;;;;;15.60;73.01;96281.88;8221356;28;20229;-86
2021/10/21 04:08:52;;;;;;;6.50;3.37;;;;;;;15.50;73.17;96283.66;8221833;28;20202;-86
2021/10/21 04:12:55;;;;;;;4.13;3.10;;;;;;;15.40;73.34;96268.03;8221401;28;20227;-86
2021/10/21 04:16:59;;;;;;;3.53;3.00;;;;;;;15.73;72.61;96292.88;8221160;28;20202;-86
2021/10/21 04:21:03;;;;;;;3.87;2.90;;;;;;;15.53;74.35;96292.03;8220389;29;20206;-87
2021/10/21 04:25:07;;;;;;;3.97;2.70;;;;;;;15.68;74.23;96287.19;8219942;29;20387;-87
2021/10/21 04:29:10;;;;;;;4.83;3.10;;;;;;;15.82;73.29;96299.00;8220681;28;20279;-87
2021/10/21 04:33:13;;;;;;;3.80;3.40;;;;;;;15.92;73.19;96278.13;8220866;28;20226;-86
2021/10/21 04:37:18;;;;;;;4.07;3.67;;;;;;;15.92;73.06;96302.44;8220187;29;20290;-85
2021/10/21 04:41:21;;;;;;;3.70;3.40;;;;;;;15.90;73.25;96312.19;8220059;28;20326;-85
2021/10/21 04:45:24;;;;;;;4.93;3.57;;;;;;;15.86;72.90;96318.66;8220745;28;20215;-83
2021/10/21 04:49:27;;;;;;;3.97;3.27;;;;;;;15.90;72.45;96314.00;8220373;28;20234;-85
2021/10/21 04:53:32;;;;;;;3.13;2.83;;;;;;;15.80;72.05;96320.06;8220300;28;20247;-83
2021/10/21 04:57:35;;;;;;;3.83;3.13;;;;;;;15.91;72.13;96326.88;8220361;28;20401;-84
2021/10/21 05:01:38;;;;;;;3.63;2.60;;;;;;;16.05;71.33;96335.22;8220195;28;20226;-84
2021/10/21 05:05:42;;;;;;;4.87;2.50;;;;;;;16.02;71.55;96347.59;8220365;28;20203;-84
2021/10/21 05:09:47;;;;;;;3.57;2.57;;;;;;;16.01;71.97;96342.50;8220146;28;20404;-84
2021/10/21 05:13:50;;;;;;;3.60;2.20;;;;;;;16.00;71.74;96344.31;8219523;28;20237;-84
2021/10/21 05:17:54;;;;;;;2.63;1.87;;;;;;;16.10;71.25;96339.06;8220261;28;20381;-86
2021/10/21 05:21:59;;;;;;;2.57;1.50;;;;;;;15.96;68.35;96350.78;8220232;28;20266;-87
2021/10/21 05:26:03;;;;;;;1.63;1.30;;;;;;;15.80;65.40;96353.97;8219793;28;20207;-86
2021/10/21 05:30:08;;;;;;;2.03;1.13;;;;;;;15.83;64.42;96358.09;8221054;28;20203;-88
2021/10/21 05:34:11;;;;;;;2.33;1.10;;;;;;;15.81;63.65;96354.78;8219678;28;20537;-86
2021/10/21 05:38:14;;;;;;;13.10;1.37;;;;;;;15.50;59.98;96372.34;8219848;28;20210;-82
2021/10/21 05:42:18;;;;;;;3.70;1.27;;;;;;;15.72;58.39;96397.34;8219791;28;20231;-81
2021/10/21 05:46:22;;;;;;;4.57;0.80;;;;;;;15.63;57.60;96393.78;8219656;28;20203;-81
2021/10/21 05:50:25;;;;;;;4.07;0.90;;;;;;;15.35;55.97;96406.69;8220245;28;20223;-83
2021/10/21 05:54:28;;;;;;;2.43;0.80;;;;;;;15.48;56.45;96427.28;8225346;28;20238;-81
2021/10/21 05:58:32;;;;;;;4.77;1.30;;;;;;;15.56;56.00;96437.06;8225407;28;20210;-81
2021/10/21 06:02:35;;;;;;;3.07;0.83;;;;;;;15.55;55.46;96451.03;8224982;28;20214;-81
2021/10/21 06:06:38;;;;;;;5.23;1.10;;;;;;;15.34;54.85;96438.09;8225198;28;20235;-82
2021/10/21 06:10:41;;;;;;;6.90;1.40;;;;;;;15.26;53.81;96459.66;8224891;28;20399;-82
2021/10/21 06:14:46;;;;;;;7.27;1.30;;;;;;;15.32;54.17;96460.91;8224817;28;20231;-82
2021/10/21 06:18:48;;;;;;;6.83;1.30;;;;;;;15.37;53.87;96471.75;8225288;28;20214;-82
2021/10/21 06:22:51;;;;;;;8.57;1.40;;;;;;;15.23;53.90;96475.53;8224499;28;20207;-81
2021/10/21 06:26:54;;;;;;;8.87;1.50;;;;;;;15.11;51.32;96481.84;8224738;28;20369;-81
2021/10/21 06:30:59;;;;;;;13.40;1.73;;;;;;;15.16;50.66;96459.63;8224580;28;20204;-81
2021/10/21 06:35:02;;;;;;;13.03;1.83;;;;;;;14.97;49.92;96481.25;8224103;28;20238;-81
2021/10/21 06:39:05;;;;;;;8.00;1.50;;;;;;;15.13;49.83;96462.50;8224416;28;20218;-81
2021/10/21 06:43:08;;;;;;;13.33;2.00;;;;;;;15.37;49.47;96485.63;8224206;28;20214;-82
2021/10/21 06:47:12;;;;;;;9.47;1.87;;;;;;;15.15;50.56;96489.25;8224310;28;20211;-80
2021/10/21 06:51:15;;;;;;;10.17;1.67;;;;;;;15.25;50.93;96497.13;8224010;28;20572;-81
2021/10/21 06:55:18;;;;;;;7.70;1.60;;;;;;;14.96;50.52;96508.25;8223894;28;20248;-81
2021/10/21 06:59:21;;;;;;;7.37;1.50;;;;;;;15.24;49.70;96500.69;8223605;28;20514;-81
2021/10/21 07:03:26;;;;;;;12.80;2.00;;;;;;;15.25;48.02;96508.38;8223059;28;20213;-80
2021/10/21 07:07:29;;;;;;;10.40;1.63;;;;;;;15.16;48.04;96516.16;8223542;28;20430;-82
2021/10/21 07:11:32;;;;;;;11.73;1.57;;;;;;;15.02;48.15;96530.38;8222715;29;20203;-81
2021/10/21 07:15:36;;;;;;;10.57;1.70;;;;;;;15.18;47.94;96555.97;8222819;28;20222;-81
2021/10/21 07:19:40;;;;;;;11.13;2.23;;;;;;;15.51;48.07;96547.00;8222957;28;20389;-82
2021/10/21 07:23:43;;;;;;;6.83;1.67;;;;;;;15.46;47.25;96559.66;8223248;29;20390;-83
2021/10/21 07:27:46;;;;;;;13.03;1.83;;;;;;;15.36;47.55;96569.22;8222651;29;20203;-83
2021/10/21 07:31:49;;;;;;;9.47;1.77;;;;;;;15.56;46.79;96557.06;8222516;29;20203;-83
2021/10/21 07:35:54;;;;;;;8.73;1.90;;;;;;;15.55;47.08;96564.03;8222452;29;20274;-82
2021/10/21 07:39:57;;;;;;;8.13;1.80;;;;;;;15.13;47.44;96595.47;8222857;29;20278;-82
2021/10/21 07:44:00;;;;;;;4.80;1.67;;;;;;;15.31;47.66;96623.56;8222592;29;20221;-82
2021/10/21 07:48:03;;;;;;;9.53;2.00;;;;;;;15.32;53.17;96606.94;8221772;29;20207;-84
2021/10/21 07:52:07;;;;;;;9.40;2.27;;;;;;;15.49;50.05;96613.34;8221652;29;20230;-85
2021/10/21 07:56:10;;;;;;;8.80;2.03;;;;;;;15.64;48.72;96644.16;8221875;28;20203;-84
2021/10/21 08:00:14;;;;;;;27.53;2.20;;;;;;;15.37;47.28;96665.59;8222031;28;20215;-84
2021/10/21 08:04:17;;;;;;;7.43;1.63;;;;;;;15.28;45.63;96657.72;8243515;28;20229;-83
2021/10/21 08:08:21;;;;;;;15.83;1.77;;;;;;;15.34;45.84;96671.06;8254163;28;20202;-83
2021/10/21 08:12:26;;;;;;;10.73;1.60;;;;;;;15.29;46.02;96670.63;8256075;28;20248;-83
2021/10/21 08:16:29;;;;;;;13.07;2.07;;;;;;;15.16;45.64;96694.31;8255407;28;20387;-83
2021/10/21 08:20:32;;;;;;;8.63;1.30;;;;;;;15.43;45.91;96711.22;8257315;28;20506;-84
2021/10/21 08:24:36;;;;;;;13.30;1.77;;;;;;;15.05;45.95;96728.25;8256213;28;20531;-84
2021/10/21 08:28:39;;;;;;;11.60;1.53;;;;;;;15.20;46.26;96729.59;8248360;28;20195;-83
2021/10/21 08:32:43;;;;;;;4.93;1.27;;;;;;;15.13;48.19;96751.91;8221488;28;20530;-83
2021/10/21 08:36:45;;;;;;;8.97;1.20;;;;;;;15.09;47.67;96765.34;8224974;29;20210;-83
2021/10/21 08:40:50;;;;;;;11.37;1.43;;;;;;;15.11;47.93;96789.50;8227887;29;20400;-84
2021/10/21 08:44:53;;;;;;;11.93;1.40;;;;;;;14.95;48.53;96775.09;8228240;29;20207;-84
2021/10/21 08:48:57;;;;;;;7.53;1.33;;;;;;;15.03;47.62;96852.69;8225923;29;20242;-83
2021/10/21 08:53:00;;;;;;;6.33;0.87;;;;;;;15.20;47.60;96805.22;8221259;29;20261;-86
2021/10/21 08:57:05;;;;;;;16.67;1.07;;;;;;;14.83;48.11;96821.25;8221520;29;20510;-84
2021/10/21 09:01:17;;;;;;;8.07;0.97;;;;;;;15.10;48.32;96866.06;8223599;29;20203;-84
2021/10/21 09:05:33;;;;;;;7.23;1.30;;;;;;;15.17;48.06;96869.84;8194180;29;20223;-83
2021/10/21 09:09:43;;;;;;;6.37;1.00;;;;;;;14.96;48.47;96894.06;8191675;29;20204;-83
2021/10/21 09:13:47;;;;;;;6.53;0.93;;;;;;;14.83;49.66;96890.75;8191438;29;20239;-83
2021/10/21 09:17:51;;;;;;;7.07;0.90;;;;;;;14.82;50.64;96910.78;8189168;29;20212;-84
2021/10/21 09:21:54;;;;;;;7.53;0.70;;;;;;;14.75;50.61;96917.41;8191835;29;20223;-83
2021/10/21 09:26:06;;;;;;;9.13;0.57;;;;;;;14.75;51.04;96924.41;8192832;29;20207;-85
2021/10/21 09:30:11;;;;;;;9.17;0.87;;;;;;;15.01;49.86;96936.25;8197558;29;20251;-84
2021/10/21 09:34:19;;;;;;;6.07;0.80;;;;;;;15.73;47.96;96944.47;8204743;29;20223;-83
2021/10/21 09:38:27;;;;;;;8.50;0.90;;;;;;;16.38;46.23;96959.09;8230559;29;20398;-84
2021/10/21 09:42:32;;;;;;;4.23;0.50;;;;;;;15.69;47.00;96972.59;8229700;29;20270;-83
2021/10/21 09:46:41;;;;;;;4.00;0.80;;;;;;;15.12;48.57;96990.16;8229727;29;20306;-84
2021/10/21 09:50:46;;;;;;;2.10;0.50;;;;;;;15.42;50.46;97033.03;8229474;29;20234;-85
2021/10/21 09:54:50;;;;;;;4.37;0.80;;;;;;;14.81;52.94;97031.66;8230592;29;20250;-85
2021/10/21 09:59:06;;;;;;;2.63;0.50;;;;;;;14.87;52.39;97043.38;8228608;29;20234;-84
2021/10/21 10:03:12;;;;;;;4.37;1.30;;;;;;;15.25;52.37;97035.19;8227863;28;20207;-84
2021/10/21 10:07:15;;;;;;;2.23;0.50;;;;;;;14.79;52.16;97058.75;8226343;28;20211;-83
2021/10/21 10:11:20;;;;;;;3.40;0.50;;;;;;;14.72;52.81;97052.38;8225515;28;20202;-85
2021/10/21 10:15:23;;;;;;;1.20;0.50;;;;;;;14.91;52.21;97065.66;8224655;28;20222;-84
2021/10/21 10:19:27;;;;;;;2.87;0.60;;;;;;;14.76;52.08;97079.84;8222085;29;20199;-84
2021/10/21 10:23:32;;;;;;;2.97;0.50;;;;;;;14.91;52.94;97081.28;8224403;28;20498;-84
2021/10/21 10:27:35;;;;;;;2.53;0.70;;;;;;;14.70;54.48;97108.97;8225041;28;20379;-85
2021/10/21 10:31:39;;;;;;;1.97;0.70;;;;;;;14.79;55.27;97129.13;8224696;28;20210;-85
2021/10/21 10:35:46;;;;;;;2.73;0.47;;;;;;;14.83;54.65;97125.34;8225185;28;20236;-83
2021/10/21 10:39:50;;;;;;;1.80;0.50;;;;;;;14.74;53.91;97132.09;8223906;28;20498;-84
2021/10/21 10:43:53;;;;;;;0.87;0.40;;;;;;;15.96;51.78;97128.00;8224972;28;20402;-84
2021/10/21 10:47:58;;;;;;;3.73;0.40;;;;;;;15.45;51.20;97147.59;8240594;28;20199;-84
2021/10/21 10:52:02;;;;;;;0.73;0.30;;;;;;;15.39;50.73;97140.25;8259429;28;20250;-85
2021/10/21 10:56:05;;;;;;;1.83;0.33;;;;;;;14.99;51.39;97154.53;8259572;28;20426;-84
2021/10/21 11:00:35;;;;;;;9.85;0.90;;;;;;;15.25;48.10;97170.00;8234310;28;20429;-83
2021/10/21 11:05:06;;;;;;;3.58;0.70;;;;;;;16.19;46.08;97170.56;8225600;28;20429;-83
2021/10/21 11:09:24;;;;;;;3.73;0.80;;;;;;;16.18;46.29;97177.59;8228484;28;20203;-85
2021/10/21 11:13:42;;;;;;;3.13;0.60;;;;;;;16.63;45.23;97181.00;8233600;28;20229;-82
2021/10/21 11:17:45;;;;;;;1.33;0.53;;;;;;;16.74;43.81;97186.19;8232320;28;20206;-83
2021/10/21 11:21:52;;;;;;;5.80;0.60;;;;;;;16.51;43.12;97201.97;8228080;28;20203;-82
2021/10/21 11:26:01;;;;;;;2.00;0.60;;;;;;;16.31;42.79;97207.94;8230244;28;20207;-82
2021/10/21 11:30:13;;;;;;;6.63;0.90;;;;;;;15.80;43.06;97211.91;8230090;28;20203;-82
2021/10/21 11:34:36;;;;;;;4.67;0.90;;;;;;;15.93;43.24;97220.44;8227180;28;20227;-82
2021/10/21 11:38:39;;;;;;;5.73;1.20;;;;;;;15.69;43.45;97217.09;8230108;28;20226;-83
2021/10/21 11:42:49;;;;;;;3.40;0.77;;;;;;;15.65;43.25;97213.91;8224418;28;20346;-84
2021/10/21 11:46:56;;;;;;;12.17;0.90;;;;;;;16.25;45.69;97230.16;8224806;28;20388;-85
2021/10/21 11:51:01;;;;;;;3.67;1.17;;;;;;;16.36;42.43;97226.69;8226911;28;20245;-82
2021/10/21 11:55:05;;;;;;;2.53;1.30;;;;;;;15.97;41.40;97229.72;8225271;28;20238;-83
2021/10/21 11:59:09;;;;;;;3.00;0.97;;;;;;;16.40;40.95;97231.56;8222272;28;20214;-84
2021/10/21 12:03:15;;;;;;;3.93;0.87;;;;;;;16.91;40.57;97234.53;8222175;28;20373;-84
2021/10/21 12:07:18;;;;;;;4.03;0.87;;;;;;;16.32;39.29;97247.03;8222991;28;20514;-82
2021/10/21 12:11:22;;;;;;;2.57;1.23;;;;;;;16.34;39.92;97252.13;8225195;28;20203;-82
2021/10/21 12:15:28;;;;;;;3.73;1.57;;;;;;;16.40;39.87;97255.06;8226713;28;20233;-83
2021/10/21 12:19:31;;;;;;;2.83;1.57;;;;;;;16.52;39.97;97250.66;8224498;28;20210;-82
2021/10/21 12:23:35;;;;;;;5.00;1.50;;;;;;;16.97;39.96;97247.91;8225419;28;20210;-83
2021/10/21 12:27:38;;;;;;;4.60;1.43;;;;;;;16.96;39.23;97248.88;8226850;28;20214;-82
2021/10/21 12:31:43;;;;;;;3.40;1.10;;;;;;;17.54;39.08;97234.53;8227158;28;20214;-83
2021/10/21 12:35:57;;;;;;;3.13;1.20;;;;;;;17.13;39.41;97251.88;8227698;28;20230;-83
2021/10/21 12:40:11;;;;;;;2.97;1.40;;;;;;;16.84;39.65;97251.66;8226004;28;20498;-84
2021/10/21 12:44:17;;;;;;;4.87;1.30;;;;;;;16.46;40.36;97245.91;8225455;28;20207;-83
2021/10/21 12:48:26;;;;;;;3.83;1.07;;;;;;;17.50;38.65;97235.75;8225900;28;20203;-83
2021/10/21 12:52:31;;;;;;;4.13;1.10;;;;;;;16.82;39.86;97254.41;8225887;28;20241;-83
2021/10/21 12:56:35;;;;;;;5.57;1.27;;;;;;;16.58;39.74;97273.69;8223744;28;20299;-82
2021/10/21 13:00:39;;;;;;;2.60;1.00;;;;;;;16.89;40.21;97263.41;8230614;28;20202;-83
2021/10/21 13:04:47;;;;;;;5.23;1.30;;;;;;;17.48;38.49;97254.19;8228518;28;20274;-84
2021/10/21 13:08:52;;;;;;;4.00;1.23;;;;;;;17.28;38.29;97263.69;8223519;28;20217;-84
2021/10/21 13:12:55;;;;;;;6.37;1.40;;;;;;;18.02;36.98;97270.63;8221414;28;20206;-83
2021/10/21 13:16:58;;;;;;;3.80;1.10;;;;;;;17.67;37.26;97268.34;8230718;28;20219;-82
2021/10/21 13:21:03;;;;;;;6.20;1.40;;;;;;;17.75;36.35;97243.19;8219467;28;20277;-84
2021/10/21 13:25:08;;;;;;;7.37;1.40;;;;;;;17.72;36.86;97242.59;8220113;29;20218;-83
2021/10/21 13:29:11;;;;;;;5.17;1.60;;;;;;;18.15;37.09;97245.03;8215014;29;20199;-84
2021/10/21 13:33:15;;;;;;;3.97;1.30;;;;;;;18.10;35.96;97236.72;8219568;29;20210;-83
2021/10/21 13:37:19;;;;;;;7.37;1.60;;;;;;;17.83;35.60;97231.22;8219923;29;20226;-84
2021/10/21 13:41:23;;;;;;;6.33;1.23;;;;;;;17.45;36.68;97225.66;8219881;29;20203;-83
2021/10/21 13:45:25;;;;;;;6.93;1.40;;;;;;;17.60;36.28;97244.47;8220029;29;20230;-83
2021/10/21 13:49:28;;;;;;;5.07;1.40;;;;;;;17.36;36.72;97240.38;8219916;29;20223;-83
2021/10/21 13:53:33;;;;;;;6.00;1.70;;;;;;;17.02;37.17;97247.56;8219745;29;20530;-83
2021/10/21 13:57:36;;;;;;;7.60;1.80;;;;;;;17.29;36.72;97244.44;8221462;29;20387;-82
2021/10/21 14:01:39;;;;;;;10.40;1.23;;;;;;;18.14;36.00;97242.53;8219515;28;20493;-84
2021/10/21 14:05:42;;;;;;;3.83;1.57;;;;;;;17.62;37.43;97226.03;8219938;28;20214;-84
2021/10/21 14:09:47;;;;;;;8.37;1.57;;;;;;;17.68;36.32;97235.97;8219707;28;20203;-84
2021/10/21 14:13:50;;;;;;;6.70;1.63;;;;;;;17.73;35.65;97245.09;8223365;28;20204;-83
2021/10/21 14:17:53;;;;;;;7.30;1.70;;;;;;;17.81;35.30;97233.97;8225228;28;20241;-83
2021/10/21 14:21:56;;;;;;;3.23;1.23;;;;;;;18.00;35.23;97246.34;8225070;28;20202;-83
2021/10/21 14:26:00;;;;;;;5.40;1.67;;;;;;;17.73;35.34;97245.09;8224488;28;20211;-84
2021/10/21 14:30:05;;;;;;;4.28;1.40;;;;;;;17.98;35.18;97243.84;8224280;28;20428;-84
2021/10/21 14:34:08;;;;;;;7.30;1.77;;;;;;;17.69;35.43;97248.13;8224937;28;20210;-83
2021/10/21 14:38:11;;;;;;;8.07;1.60;;;;;;;17.62;35.13;97242.56;8223371;28;20656;-84
2021/10/21 14:42:18;;;;;;;4.20;1.30;;;;;;;17.50;36.02;97249.66;8223353;28;20429;-86
2021/10/21 14:46:21;;;;;;;4.53;1.47;;;;;;;16.68;37.13;97259.88;8225679;29;20502;-83
2021/10/21 14:50:24;;;;;;;5.80;1.30;;;;;;;16.80;36.73;97248.44;8228326;28;20226;-84
2021/10/21 14:54:27;;;;;;;6.40;1.33;;;;;;;16.54;36.88;97240.91;8224446;29;20234;-84
2021/10/21 14:58:33;;;;;;;6.07;1.77;;;;;;;16.40;37.22;97246.41;8226239;29;20199;-84
2021/10/21 15:02:36;;;;;;;5.57;1.60;;;;;;;16.66;37.06;97244.34;8228518;28;20215;-84
2021/10/21 15:07:15;;;;;;;9.33;1.77;;;;;;;16.55;37.33;97229.50;8232741;29;20198;-83
2021/10/21 15:24:27;;;;;;;5.93;1.80;;;;;;;16.14;38.49;97227.56;8223872;28;20206;-83
2021/10/21 15:28:30;;;;;;;5.13;1.90;;;;;;;16.16;38.61;97212.59;8226199;28;20210;-82
2021/10/21 15:32:35;;;;;;;4.90;3.20;;;;;;;16.01;38.87;97212.88;8224691;28;20204;-84
2021/10/21 15:36:39;;;;;;;4.63;1.90;;;;;;;15.75;39.02;97214.88;8222864;28;20234;-82
2021/10/21 15:40:44;;;;;;;4.53;1.63;;;;;;;16.00;38.72;97218.22;8224918;28;20199;-82
2021/10/21 15:49:36;;;;;;;6.23;1.80;;;;;;;15.62;39.40;97211.53;8225549;28;20215;-82
2021/10/21 16:11:10;;;;;;;8.70;4.97;;;;;;;15.62;39.25;97194.09;8225020;29;20204;-83
2021/10/21 16:15:15;;;;;;;15.27;11.77;;;;;;;15.33;39.50;97198.13;8222342;29;20249;-82
2021/10/21 16:19:18;;;;;;;15.10;10.20;;;;;;;15.56;38.98;97198.97;8228504;28;20195;-83
2021/10/21 16:23:32;;;;;;;6.23;2.93;;;;;;;15.34;39.33;97203.19;8228267;28;20207;-82
2021/10/21 16:27:35;;;;;;;4.30;2.00;;;;;;;15.35;39.25;97207.47;8229580;28;20215;-85
2021/10/21 16:31:38;;;;;;;4.13;1.50;;;;;;;15.33;39.56;97209.38;8228492;28;20218;-84
2021/10/21 16:35:47;;;;;;;6.60;2.03;;;;;;;15.25;40.06;97217.78;8221992;28;20226;-84
2021/10/21 16:39:52;;;;;;;3.60;1.50;;;;;;;15.23;40.21;97214.44;8222577;28;20214;-85
2021/10/21 16:43:54;;;;;;;5.03;1.30;;;;;;;15.10;40.39;97218.06;8220016;28;21172;-85
2021/10/21 16:47:58;;;;;;;5.27;1.53;;;;;;;15.15;39.82;97221.19;8218171;29;20262;-84
2021/10/21 16:52:03;;;;;;;6.70;1.50;;;;;;;15.05;40.42;97221.03;8219935;29;20235;-85
2021/10/21 16:56:07;;;;;;;2.90;1.30;;;;;;;14.95;40.34;97233.09;8222469;29;20548;-82
2021/10/21 17:00:23;;;;;;;6.17;1.47;;;;;;;14.78;40.08;97232.56;8219554;29;20311;-80
2021/10/21 17:04:27;;;;;;;5.70;1.53;;;;;;;14.86;40.23;97226.78;8220429;28;20195;-85
2021/10/21 17:08:30;;;;;;;3.13;1.33;;;;;;;14.70;40.53;97224.47;8220825;29;20395;-85
2021/10/21 17:12:35;;;;;;;3.90;1.50;;;;;;;14.68;40.19;97226.34;8221158;28;20390;-83
2021/10/21 17:16:42;;;;;;;4.13;1.60;;;;;;;14.71;40.14;97227.91;8220544;28;20231;-83
2021/10/21 17:20:45;;;;;;;6.03;1.60;;;;;;;14.62;40.25;97226.78;8220188;28;20199;-84
2021/10/21 17:24:48;;;;;;;6.00;1.37;;;;;;;14.79;39.62;97233.38;8220610;28;20203;-82
2021/10/21 17:28:54;;;;;;;6.00;1.77;;;;;;;14.59;40.32;97222.63;8220675;28;20522;-85
2021/10/21 17:32:57;;;;;;;3.90;1.50;;;;;;;14.76;39.61;97231.84;8219536;28;20195;-84
2021/10/21 17:37:02;;;;;;;5.53;1.37;;;;;;;14.57;39.69;97229.72;8219425;29;20219;-83
2021/10/21 17:41:06;;;;;;;4.10;1.50;;;;;;;14.54;39.92;97235.13;8219828;28;20401;-85
2021/10/21 17:45:12;;;;;;;5.63;1.50;;;;;;;14.67;40.22;97248.13;8220487;28;20207;-84
2021/10/21 17:49:16;;;;;;;5.47;1.57;;;;;;;14.57;40.24;97247.97;8225479;28;20223;-83
2021/10/21 17:53:19;;;;;;;4.70;1.53;;;;;;;14.53;40.14;97246.50;8224777;28;20242;-83
2021/10/21 17:57:22;;;;;;;8.03;1.90;;;;;;;14.38;40.68;97255.41;8225898;29;20227;-82
2021/10/21 18:01:27;;;;;;;6.27;1.53;;;;;;;14.38;40.76;97269.25;8226026;28;20214;-83
2021/10/21 18:05:30;;;;;;;6.20;1.97;;;;;;;14.34;40.72;97257.41;8226745;28;20397;-84
2021/10/21 18:09:33;;;;;;;5.37;1.50;;;;;;;14.50;40.68;97253.69;8226622;28;20203;-85
2021/10/21 18:13:37;;;;;;;8.10;1.63;;;;;;;14.52;40.81;97263.06;8226655;28;20387;-84
2021/10/21 18:17:42;;;;;;;4.77;1.87;;;;;;;14.64;41.13;97264.84;8225896;28;20530;-82
2021/10/21 18:21:45;;;;;;;5.67;2.07;;;;;;;14.57;40.83;97275.81;8225871;28;20479;-83
2021/10/21 18:25:49;;;;;;;5.63;1.63;;;;;;;14.56;41.17;97279.31;8225868;28;20230;-83
2021/10/21 18:29:51;;;;;;;4.53;1.53;;;;;;;14.59;41.08;97297.38;8224609;29;20505;-83
2021/10/21 18:33:56;;;;;;;6.30;2.23;;;;;;;14.59;41.14;97306.00;8225253;28;20199;-84
2021/10/21 18:38:03;;;;;;;5.47;2.30;;;;;;;14.69;41.36;97314.00;8231068;28;20232;-82
2021/10/21 18:42:13;;;;;;;3.40;1.80;;;;;;;14.68;41.06;97329.75;8224350;28;20490;-83
2021/10/21 18:46:24;;;;;;;5.80;1.73;;;;;;;14.32;42.03;97318.34;8223331;28;20218;-84
2021/10/21 18:50:40;;;;;;;7.40;2.10;;;;;;;14.41;42.10;97325.50;8221422;29;20289;-85
2021/10/21 18:54:48;;;;;;;7.53;2.07;;;;;;;14.49;41.89;97349.28;8220823;29;20266;-87
2021/10/21 18:58:58;;;;;;;7.57;2.13;;;;;;;14.60;42.15;97353.75;8253358;28;20525;-85
2021/10/21 19:03:01;;;;;;;5.30;1.60;;;;;;;14.27;46.46;97371.56;8258810;28;20193;-87
2021/10/21 19:07:07;;;;;;;7.10;2.00;;;;;;;14.24;47.98;97383.97;8227492;28;20215;-83
2021/10/21 19:11:14;;;;;;;6.50;1.70;;;;;;;13.89;50.41;97408.84;8224640;28;20207;-85
2021/10/21 19:15:31;;;;;;;7.03;1.97;;;;;;;13.78;53.61;97429.53;8228891;28;20207;-86
2021/10/21 19:19:42;;;;;;;6.40;1.90;;;;;;;13.75;55.15;97439.34;8228936;28;20237;-92
2021/10/21 19:23:47;;;;;;;7.13;2.13;;;;;;;13.46;57.33;97453.31;8230324;28;20213;-88
2021/10/21 19:27:50;;;;;;;8.10;2.40;;;;;;;13.65;57.73;97467.72;8229732;28;20210;-85
2021/10/21 19:31:54;;;;;;;9.60;2.70;;;;;;;13.65;58.22;97457.31;8228754;28;20365;-87
2021/10/21 19:35:57;;;;;;;9.97;3.27;;;;;;;13.89;57.85;97460.91;8229736;29;20214;-88
2021/10/21 19:40:01;;;;;;;8.13;2.57;;;;;;;13.68;58.69;97470.94;8230037;29;20203;-86
2021/10/21 19:44:05;;;;;;;8.97;3.10;;;;;;;13.85;58.29;97479.44;8229129;28;20200;-89